Terminal Aerodrome Forecast
Issued by NWS Sterling, VA

Current Version | Previous Version | Graphics & Text | Print | Product List | Glossary On
Versions: 1 2 3 4 5 6 7 8 9 10 11 12 13 14 15 16 17 18 19 20 21 22
000
FTUS41 KLWX 010800 AAA
TAFIAD
TAF AMD
KIAD 010855Z 0109/0212 00000KT P6SM BKN250
     FM011100 17004KT P6SM OVC050
      TEMPO 0116/0118 6SM -SN OVC040
     FM012200 12005KT 6SM -RASNPL OVC040
     FM020100 13006KT 6SM -RA OVC020
     FM020500 16007KT 3SM RA BR BKN007 OVC015=

USA.gov is the U.S. government's official web portal to all federal, state and local government web resources and services.